This is the latest recevied weather packets stored in our database for station/object OK2ILA-6. If no packets are shown the sender has not sent any weather packets the latest 10 day(s).
| Time | Temp. | Humidity | Pressure | Rain* | Wind** | Luminosity | Snow |
|---|---|---|---|---|---|---|---|
| 1777527602 | 2.22° C | 72% | 1030.6 hPa | - | - | - | - |
| 1777527003 | 1.11° C | 73% | 1030.6 hPa | - | - | - | - |
| 1777526403 | 0.56° C | 76% | 1030.4 hPa | - | - | - | - |
| 1777525803 | 0° C | 78% | 1030.4 hPa | - | - | - | - |
| 1777525202 | -0.56° C | 79% | 1030.3 hPa | - | - | - | - |
| 1777524602 | -1.11° C | 80% | 1030.4 hPa | - | - | - | - |
| 1777524003 | -1.11° C | 81% | 1030.2 hPa | - | - | - | - |
| 1777523403 | -1.11° C | 82% | 1030 hPa | - | - | - | - |
| 1777522803 | -1.67° C | 82% | 1030.1 hPa | - | - | - | - |
| 1777522202 | -2.22° C | 82% | 1030.1 hPa | - | - | - | - |
| 1777521602 | -2.22° C | 82% | 1030 hPa | - | - | - | - |
| 1777521003 | -2.22° C | 82% | 1030 hPa | - | - | - | - |
| 1777520403 | -2.22° C | 82% | 1030.1 hPa | - | - | - | - |
| 1777519803 | -2.22° C | 81% | 1030 hPa | - | - | - | - |
| 1777519202 | -1.67° C | 81% | 1030 hPa | - | - | - | - |
| 1777518602 | -1.67° C | 80% | 1030 hPa | - | - | - | - |
| 1777518003 | -1.67° C | 80% | 1030 hPa | - | - | - | - |
| 1777517403 | -1.11° C | 79% | 1029.8 hPa | - | - | - | - |
| 1777516803 | -1.11° C | 79% | 1029.8 hPa | - | - | - | - |
| 1777516202 | -1.11° C | 80% | 1029.8 hPa | - | - | - | - |
| 1777515602 | -1.11° C | 79% | 1029.8 hPa | - | - | - | - |
| 1777515003 | -1.11° C | 79% | 1029.8 hPa | - | - | - | - |
| 1777514403 | -1.11° C | 80% | 1029.8 hPa | - | - | - | - |
| 1777513803 | -1.11° C | 80% | 1029.6 hPa | - | - | - | - |
| 1777512003 | -1.11° C | 78% | 1029.4 hPa | - | - | - | - |
* Rain since midnight (hover to see other rain measurements)
** Current wind speed in m/s (hover to see current wind gust speed)